createdAt,value
2019-02-27T00:00:48.128Z,19.85
2019-02-27T00:03:18.217Z,18.30
2019-02-27T00:05:47.271Z,19.35
2019-02-27T00:08:16.160Z,20.70
2019-02-27T02:35:16.301Z,18.90
2019-02-27T02:38:41.682Z,17.98
2019-02-27T02:41:38.056Z,19.85
2019-02-27T02:44:33.980Z,18.00
2019-02-27T02:47:35.241Z,17.70
2019-02-27T02:51:03.625Z,16.87
2019-02-27T02:54:03.545Z,17.15
2019-02-27T02:56:40.470Z,18.67
2019-02-27T02:59:46.562Z,18.20
2019-02-27T03:02:29.781Z,17.62
2019-02-27T03:05:37.206Z,19.02
2019-02-27T03:08:41.802Z,17.15
2019-02-27T03:11:54.217Z,20.17
2019-02-27T03:14:43.614Z,19.92
2019-02-27T03:17:38.868Z,21.07
2019-02-27T03:20:44.169Z,21.57
2019-02-27T03:23:43.421Z,21.17
2019-02-27T03:26:53.336Z,20.40
2019-02-27T03:29:41.209Z,19.33
2019-02-27T03:32:22.450Z,21.93
2019-02-27T03:35:50.766Z,21.62
2019-02-27T03:39:09.645Z,20.50
2019-02-27T03:42:18.840Z,21.42
2019-02-27T03:45:14.877Z,21.17
2019-02-27T03:48:27.427Z,35.23
2019-02-27T03:51:08.351Z,31.63
2019-02-27T03:54:13.506Z,32.58
2019-02-27T03:57:23.189Z,35.23
2019-02-27T04:00:49.841Z,31.48
2019-02-27T04:03:55.503Z,31.55
2019-02-27T04:07:05.914Z,26.30
2019-02-27T04:09:34.971Z,23.62
2019-02-27T04:12:04.088Z,22.55
2019-02-27T04:14:40.514Z,23.20
2019-02-27T04:17:07.082Z,21.17
2019-02-27T04:19:39.229Z,23.07
2019-02-27T04:22:07.338Z,23.18
2019-02-27T04:24:36.517Z,24.63
2019-02-27T04:27:05.800Z,23.12
2019-02-27T04:29:34.772Z,22.30
2019-02-27T04:32:03.867Z,20.62
2019-02-27T04:34:33.187Z,21.82
2019-02-27T04:37:02.804Z,19.70
2019-02-27T04:39:31.814Z,25.85
2019-02-27T04:42:00.845Z,25.52
2019-02-27T04:44:30.219Z,24.27
2019-02-27T04:46:59.376Z,20.62
2019-02-27T04:49:28.443Z,21.75
2019-02-27T04:51:57.896Z,20.97
2019-02-27T04:54:27.769Z,23.50
2019-02-27T04:56:57.573Z,23.83
2019-02-27T04:59:27.020Z,27.13
2019-02-27T05:01:57.265Z,25.20
2019-02-27T05:04:26.847Z,23.85
2019-02-27T05:06:55.804Z,27.13
2019-02-27T05:09:24.676Z,23.32
2019-02-27T05:11:53.708Z,24.43
2019-02-27T05:14:24.795Z,21.57
2019-02-27T05:16:53.379Z,25.35
2019-02-27T05:19:22.344Z,23.45
2019-02-27T05:21:52.566Z,23.32
2019-02-27T05:24:22.182Z,25.17
2019-02-27T05:26:51.008Z,24.35
2019-02-27T05:29:20.519Z,22.32
2019-02-27T05:31:50.183Z,23.47
2019-02-27T05:34:20.209Z,23.15
2019-02-27T05:36:49.197Z,23.53
2019-02-27T05:39:18.389Z,21.40
2019-02-27T05:41:47.344Z,22.32
2019-02-27T05:44:21.329Z,24.60
2019-02-27T05:46:47.673Z,23.65
2019-02-27T05:49:16.536Z,23.52
2019-02-27T05:51:45.461Z,21.70
2019-02-27T05:54:14.332Z,24.43
2019-02-27T05:56:43.378Z,25.80
2019-02-27T05:59:12.280Z,26.07
2019-02-27T06:01:41.147Z,25.40
2019-02-27T06:04:10.079Z,27.42
2019-02-27T06:06:39.030Z,22.22
2019-02-27T06:09:10.990Z,24.77
2019-02-27T06:11:40.012Z,22.55
2019-02-27T06:14:09.320Z,24.67
2019-02-27T06:16:40.733Z,24.70
2019-02-27T06:19:09.396Z,25.92
2019-02-27T06:21:38.905Z,25.35
2019-02-27T06:24:11.588Z,26.40
2019-02-27T06:26:38.888Z,24.77
2019-02-27T06:29:08.252Z,28.27
2019-02-27T06:31:39.431Z,26.65
2019-02-27T06:34:07.908Z,24.80
2019-02-27T06:36:41.850Z,23.30
2019-02-27T06:39:08.827Z,24.60
2019-02-27T06:41:39.766Z,22.90
2019-02-27T06:44:08.805Z,24.10
2019-02-27T06:46:37.728Z,24.47
2019-02-27T06:49:06.653Z,25.88
2019-02-27T06:51:36.523Z,26.02
2019-02-27T06:54:05.618Z,23.32
2019-02-27T06:56:34.612Z,23.15
2019-02-27T06:59:03.608Z,23.07
2019-02-27T07:01:32.491Z,24.25
2019-02-27T07:04:02.250Z,25.60
2019-02-27T07:06:32.324Z,22.37
2019-02-27T07:09:01.196Z,20.70
2019-02-27T07:11:30.043Z,22.20
2019-02-27T07:13:59.000Z,20.92
2019-02-27T07:16:27.915Z,21.20
2019-02-27T07:18:56.857Z,20.13
2019-02-27T07:21:25.820Z,23.15
2019-02-27T07:23:57.883Z,22.37
2019-02-27T07:26:25.355Z,20.12
2019-02-27T07:28:54.715Z,22.10
2019-02-27T07:31:23.646Z,19.52
2019-02-27T07:33:52.608Z,25.88
2019-02-27T07:36:21.556Z,21.65
2019-02-27T07:38:50.472Z,26.10
2019-02-27T07:41:20.892Z,24.37
2019-02-27T07:43:49.988Z,24.92
2019-02-27T07:46:22.198Z,20.70
2019-02-27T07:48:50.363Z,22.80
2019-02-27T07:51:20.846Z,21.93
2019-02-27T07:53:51.377Z,22.97
2019-02-27T07:56:20.459Z,18.98
2019-02-27T07:58:51.996Z,20.48
2019-02-27T08:01:23.401Z,23.47
2019-02-27T08:03:51.560Z,22.52
2019-02-27T08:06:21.025Z,19.70
2019-02-27T08:08:49.890Z,20.62
2019-02-27T08:11:18.760Z,20.37
2019-02-27T08:13:47.691Z,22.02
2019-02-27T08:16:17.080Z,19.10
2019-02-27T08:18:46.056Z,19.87
2019-02-27T08:21:15.065Z,17.95
2019-02-27T08:23:44.037Z,18.77
2019-02-27T08:26:12.936Z,17.83
2019-02-27T08:28:42.305Z,17.10
2019-02-27T08:31:11.308Z,18.10
2019-02-27T08:33:40.233Z,19.27
2019-02-27T08:36:09.789Z,16.57
2019-02-27T08:38:39.472Z,17.80
2019-02-27T08:41:08.748Z,20.35
2019-02-27T08:43:37.868Z,18.52
2019-02-27T08:46:06.732Z,17.67
2019-02-27T08:48:35.739Z,19.65
2019-02-27T08:51:08.390Z,17.35
2019-02-27T08:53:35.531Z,18.90
2019-02-27T08:56:04.524Z,16.35
2019-02-27T08:58:33.580Z,18.70
2019-02-27T09:01:04.933Z,19.00
2019-02-27T09:03:36.463Z,17.00
2019-02-27T09:06:04.789Z,20.82
2019-02-27T09:08:33.722Z,17.30
2019-02-27T09:11:06.539Z,18.47
2019-02-27T09:13:33.757Z,18.85
2019-02-27T09:16:02.716Z,19.60
2019-02-27T09:18:33.315Z,17.95
2019-02-27T09:21:02.427Z,20.15
2019-02-27T09:23:31.344Z,17.82
2019-02-27T09:26:02.825Z,17.37
2019-02-27T09:28:30.972Z,19.57
2019-02-27T09:31:04.255Z,18.50
2019-02-27T09:33:38.548Z,20.13
2019-02-27T09:36:02.313Z,18.67
2019-02-27T09:38:31.747Z,16.23
2019-02-27T09:41:00.677Z,18.10
2019-02-27T09:43:29.696Z,19.80
2019-02-27T09:45:58.552Z,18.92
2019-02-27T09:48:27.558Z,18.27
2019-02-27T09:50:57.028Z,18.10
2019-02-27T09:53:26.332Z,18.02
2019-02-27T09:55:55.403Z,19.23
2019-02-27T09:58:24.400Z,20.10
2019-02-27T10:00:59.204Z,19.45
2019-02-27T10:03:26.868Z,19.75
2019-02-27T10:05:55.816Z,19.77
2019-02-27T10:08:25.532Z,17.65
2019-02-27T10:10:55.100Z,17.50
2019-02-27T10:13:24.110Z,18.48
2019-02-27T10:15:53.156Z,18.17
2019-02-27T10:18:22.352Z,19.95
2019-02-27T10:20:51.383Z,18.70
2019-02-27T10:23:20.383Z,17.60
2019-02-27T10:25:50.020Z,23.05
2019-02-27T10:28:24.600Z,20.20
2019-02-27T10:30:53.629Z,18.65
2019-02-27T10:33:25.871Z,20.60
2019-02-27T10:35:54.828Z,18.97
2019-02-27T10:38:26.094Z,19.17
2019-02-27T10:40:55.118Z,18.48
2019-02-27T10:43:24.253Z,20.67
2019-02-27T10:45:53.224Z,18.25
2019-02-27T10:48:22.712Z,21.05
2019-02-27T10:50:51.783Z,19.05
2019-02-27T10:53:27.128Z,16.70
2019-02-27T10:55:52.954Z,18.17
2019-02-27T10:58:21.921Z,19.27
2019-02-27T11:00:51.191Z,19.40
2019-02-27T11:03:20.165Z,18.07
2019-02-27T11:05:55.558Z,17.40
2019-02-27T11:08:28.844Z,19.57
2019-02-27T11:10:56.458Z,18.98
2019-02-27T11:13:25.445Z,19.42
2019-02-27T11:15:54.446Z,19.17
2019-02-27T11:18:23.858Z,18.90
2019-02-27T11:20:55.678Z,18.67
2019-02-27T11:23:23.545Z,18.70
2019-02-27T11:25:56.564Z,16.67
2019-02-27T11:28:23.325Z,17.10
2019-02-27T11:30:52.701Z,17.80
2019-02-27T11:33:25.973Z,21.50
2019-02-27T11:35:53.094Z,17.80
2019-02-27T11:38:24.876Z,17.45
2019-02-27T11:40:52.878Z,18.32
2019-02-27T11:43:21.933Z,18.80
2019-02-27T11:45:51.291Z,18.23
2019-02-27T11:48:22.674Z,17.93
2019-02-27T11:50:50.924Z,18.87
2019-02-27T11:53:20.165Z,18.05
2019-02-27T11:55:49.238Z,20.37
2019-02-27T11:58:18.245Z,20.15
2019-02-27T12:00:47.276Z,18.60
2019-02-27T12:03:16.290Z,16.02
2019-02-27T12:05:45.938Z,21.82
2019-02-27T12:08:14.800Z,20.05
2019-02-27T12:10:43.765Z,16.97
2019-02-27T12:13:12.812Z,16.97
2019-02-27T12:15:43.602Z,18.10
2019-02-27T12:18:12.465Z,18.17
2019-02-27T12:20:41.456Z,19.02
2019-02-27T12:23:10.842Z,17.02
2019-02-27T12:25:39.808Z,16.60
2019-02-27T12:28:08.802Z,19.62
2019-02-27T12:30:38.037Z,17.27
2019-02-27T12:33:07.493Z,17.37
2019-02-27T12:35:36.482Z,17.45
2019-02-27T12:38:08.102Z,16.10
2019-02-27T12:40:36.683Z,19.75
2019-02-27T12:43:05.713Z,18.15
2019-02-27T12:45:34.859Z,15.30
2019-02-27T12:48:03.871Z,19.70
2019-02-27T12:50:33.444Z,16.25
2019-02-27T12:53:03.645Z,17.23
2019-02-27T12:55:35.422Z,17.90
2019-02-27T12:58:03.704Z,16.73
2019-02-27T13:00:33.256Z,17.50
2019-02-27T13:03:02.149Z,18.60
2019-02-27T13:05:31.149Z,16.77
2019-02-27T13:08:00.171Z,14.45
2019-02-27T13:10:33.507Z,18.37
2019-02-27T13:13:00.184Z,18.67
2019-02-27T13:15:29.266Z,14.93
2019-02-27T13:17:58.763Z,18.40
2019-02-27T13:20:27.795Z,15.30
2019-02-27T13:22:57.128Z,15.53
2019-02-27T13:25:26.127Z,16.07
2019-02-27T13:27:55.112Z,16.70
2019-02-27T13:30:24.153Z,18.07
2019-02-27T13:32:53.095Z,16.32
2019-02-27T13:35:23.142Z,16.20
2019-02-27T13:37:52.851Z,15.13
2019-02-27T13:40:21.969Z,16.82
2019-02-27T13:42:53.330Z,15.40
2019-02-27T13:45:23.933Z,14.93
2019-02-27T13:47:53.066Z,13.70
2019-02-27T13:50:24.527Z,15.18
2019-02-27T13:52:52.997Z,13.80
2019-02-27T13:55:22.182Z,15.75
2019-02-27T13:57:51.207Z,16.80
2019-02-27T14:00:26.156Z,13.78
2019-02-27T14:02:55.307Z,14.10
2019-02-27T14:05:24.341Z,14.65
2019-02-27T14:07:56.984Z,14.33
2019-02-27T14:10:25.555Z,16.85
2019-02-27T14:12:54.576Z,13.13
2019-02-27T14:15:26.774Z,16.50
2019-02-27T14:17:54.464Z,15.00
2019-02-27T14:20:26.856Z,15.05
2019-02-27T14:22:54.947Z,12.78
2019-02-27T14:25:28.530Z,13.98
2019-02-27T14:27:56.331Z,16.67
2019-02-27T14:30:31.326Z,12.63
2019-02-27T14:33:00.401Z,14.98
2019-02-27T14:35:29.391Z,13.83
2019-02-27T14:37:58.354Z,12.95
2019-02-27T14:40:27.357Z,14.40
2019-02-27T14:42:56.387Z,12.37
2019-02-27T14:45:25.654Z,11.15
2019-02-27T14:47:54.624Z,12.47
2019-02-27T14:50:23.589Z,14.33
2019-02-27T14:52:52.715Z,13.40
2019-02-27T14:55:21.778Z,13.58
2019-02-27T14:57:51.511Z,10.60
2019-02-27T15:00:25.576Z,12.78
2019-02-27T15:02:55.572Z,11.75
2019-02-27T15:05:27.412Z,12.30
2019-02-27T15:07:56.476Z,10.93
2019-02-27T15:10:25.795Z,14.38
2019-02-27T15:12:55.626Z,12.85
2019-02-27T15:15:26.589Z,12.33
2019-02-27T15:17:55.701Z,14.65
2019-02-27T15:20:25.672Z,15.15
2019-02-27T15:22:55.055Z,10.80
2019-02-27T15:25:24.074Z,12.93
2019-02-27T15:27:53.005Z,11.85
2019-02-27T15:30:23.856Z,14.07
2019-02-27T15:32:52.864Z,13.10
2019-02-27T15:35:22.278Z,12.30
2019-02-27T15:37:51.598Z,12.40
2019-02-27T15:40:21.751Z,14.85
2019-02-27T15:42:50.795Z,11.20
2019-02-27T15:45:20.460Z,11.80
2019-02-27T15:47:49.855Z,12.43
2019-02-27T15:50:22.705Z,13.43
2019-02-27T15:52:50.825Z,12.65
2019-02-27T15:55:19.834Z,10.32
2019-02-27T15:57:52.575Z,13.13
2019-02-27T16:00:21.269Z,13.68
2019-02-27T16:02:50.344Z,11.63
2019-02-27T16:05:19.380Z,13.13
2019-02-27T16:07:49.799Z,13.40
2019-02-27T16:10:20.500Z,13.18
2019-02-27T16:12:49.732Z,12.07
2019-02-27T16:15:18.912Z,12.50
2019-02-27T16:17:48.032Z,13.10
2019-02-27T16:20:17.905Z,13.62
2019-02-27T16:22:46.968Z,13.43
2019-02-27T16:25:19.946Z,13.72
2019-02-27T16:27:48.532Z,15.28
2019-02-27T16:30:19.597Z,15.00
2019-02-27T16:32:49.996Z,13.20
2019-02-27T16:35:19.199Z,12.55
2019-02-27T16:37:48.161Z,12.65
2019-02-27T16:40:18.637Z,13.13
2019-02-27T16:42:47.972Z,17.23
2019-02-27T16:45:18.448Z,13.95
2019-02-27T16:47:47.648Z,16.15
2019-02-27T16:50:24.549Z,15.30
2019-02-27T16:52:52.124Z,17.15
2019-02-27T16:55:22.147Z,17.90
2019-02-27T16:57:56.551Z,16.80
2019-02-27T17:00:24.747Z,15.00
2019-02-27T17:02:53.777Z,16.95
2019-02-27T17:05:22.687Z,20.30
2019-02-27T17:07:52.335Z,17.98
2019-02-27T17:10:23.937Z,18.05
2019-02-27T17:12:54.727Z,16.42
2019-02-27T17:15:23.859Z,22.07
2019-02-27T17:17:53.333Z,27.87
2019-02-27T17:20:24.072Z,32.17
2019-02-27T17:22:53.107Z,35.90
2019-02-27T17:25:22.109Z,39.08
2019-02-27T17:27:53.413Z,32.42
2019-02-27T17:30:29.557Z,33.95
2019-02-27T17:33:01.286Z,23.77
2019-02-27T17:35:29.605Z,27.30
2019-02-27T17:37:59.109Z,25.50
2019-02-27T17:40:29.278Z,19.67
2019-02-27T17:42:58.547Z,26.87
2019-02-27T17:45:27.591Z,24.57
2019-02-27T17:47:56.658Z,33.30
2019-02-27T17:50:30.967Z,23.60
2019-02-27T17:52:56.458Z,22.55
2019-02-27T17:55:25.499Z,35.33
2019-02-27T17:57:57.869Z,37.98
2019-02-27T18:00:30.628Z,35.75
2019-02-27T18:02:59.692Z,40.92
2019-02-27T18:05:28.726Z,41.08
2019-02-27T18:07:57.818Z,43.87
2019-02-27T18:10:26.866Z,29.02
2019-02-27T18:12:55.921Z,24.70
2019-02-27T18:15:24.990Z,25.53
2019-02-27T18:17:54.021Z,30.97
2019-02-27T18:20:25.584Z,30.43
2019-02-27T18:22:53.854Z,31.80
2019-02-27T18:25:22.861Z,28.42
2019-02-27T18:27:53.364Z,30.72
2019-02-27T18:30:22.480Z,28.70
2019-02-27T18:32:51.534Z,25.93
2019-02-27T18:35:20.590Z,32.08
2019-02-27T18:37:53.366Z,30.45
2019-02-27T18:40:20.732Z,31.27
2019-02-27T18:42:55.220Z,26.65
2019-02-27T18:45:21.447Z,31.23
2019-02-27T18:47:50.540Z,32.93
2019-02-27T18:50:19.569Z,23.67
2019-02-27T18:52:48.860Z,26.65
2019-02-27T18:55:17.932Z,23.25
2019-02-27T18:57:47.603Z,27.77
2019-02-27T19:00:20.681Z,24.92
2019-02-27T19:02:52.031Z,22.32
2019-02-27T19:05:22.060Z,29.48
2019-02-27T19:07:54.780Z,26.00
2019-02-27T19:10:22.478Z,23.15
2019-02-27T19:12:51.577Z,24.32
2019-02-27T19:15:22.081Z,22.62
2019-02-27T19:17:51.539Z,24.27
2019-02-27T19:20:24.915Z,26.02
2019-02-27T19:22:53.397Z,22.98
2019-02-27T19:25:22.531Z,29.55
2019-02-27T19:27:51.540Z,34.83
2019-02-27T19:30:20.958Z,32.75
2019-02-27T19:32:50.216Z,36.90
2019-02-27T19:35:21.685Z,33.92
2019-02-27T19:37:50.592Z,30.85
2019-02-27T19:40:20.252Z,33.30
2019-02-27T19:42:51.432Z,33.97
2019-02-27T19:45:20.428Z,26.00
2019-02-27T19:47:54.062Z,37.23
2019-02-27T19:50:22.972Z,38.60
2019-02-27T19:52:54.499Z,35.83
2019-02-27T19:55:27.444Z,32.85
2019-02-27T19:57:55.827Z,32.13
2019-02-27T20:00:26.267Z,28.92
2019-02-27T20:03:00.281Z,26.95
2019-02-27T20:05:26.085Z,31.05
2019-02-27T20:07:55.341Z,39.03
2019-02-27T20:10:29.056Z,31.47
2019-02-27T20:12:55.380Z,30.05
2019-02-27T20:15:24.613Z,29.48
2019-02-27T20:17:53.608Z,30.40
2019-02-27T20:20:22.968Z,27.80
2019-02-27T20:22:53.473Z,29.95
2019-02-27T20:25:23.663Z,36.83
2019-02-27T20:27:52.697Z,39.45
2019-02-27T20:30:22.030Z,35.70
2019-02-27T20:32:51.059Z,34.80
2019-02-27T20:35:20.803Z,34.65
2019-02-27T20:37:52.120Z,34.38
2019-02-27T20:40:21.305Z,37.55
2019-02-27T20:42:55.052Z,31.02
2019-02-27T20:45:32.105Z,36.45
2019-02-27T20:48:19.362Z,35.10
2019-02-27T20:50:55.253Z,32.28
2019-02-27T20:57:17.480Z,35.63
2019-02-27T21:00:59.291Z,36.27
2019-02-27T21:07:06.776Z,32.35
2019-02-27T21:09:36.116Z,30.88
2019-02-27T21:12:33.549Z,31.10
2019-02-27T21:15:29.410Z,37.17
2019-02-27T21:18:04.788Z,32.95
2019-02-27T21:20:45.236Z,34.27
2019-02-27T21:23:35.236Z,33.33
2019-02-27T21:27:11.703Z,48.30
2019-02-27T21:29:46.946Z,40.08
2019-02-27T21:32:27.675Z,36.65
2019-02-27T21:35:49.711Z,37.90
2019-02-27T21:43:03.050Z,39.05
2019-02-27T21:54:11.989Z,42.65
2019-02-27T22:01:15.814Z,36.45
2019-02-27T22:03:45.956Z,40.35
2019-02-27T22:06:27.505Z,35.03
2019-02-27T22:09:05.337Z,40.80
2019-02-27T22:11:40.000Z,41.77
2019-02-27T22:14:10.453Z,42.93
2019-02-27T22:16:40.785Z,43.25
2019-02-27T22:19:09.725Z,41.90
2019-02-27T22:21:39.025Z,40.33
2019-02-27T22:24:07.965Z,40.92
2019-02-27T22:26:37.503Z,38.58
2019-02-27T22:29:10.777Z,39.15
2019-02-27T22:31:40.513Z,42.38
2019-02-27T22:34:10.299Z,38.98
2019-02-27T22:36:39.306Z,42.95
2019-02-27T22:39:08.375Z,48.25
2019-02-27T22:41:43.050Z,40.28
2019-02-27T22:44:13.854Z,42.20
2019-02-27T22:46:42.633Z,42.05
2019-02-27T22:49:11.696Z,43.33
2019-02-27T22:51:40.628Z,45.00
2019-02-27T22:54:09.552Z,44.83
2019-02-27T22:56:38.368Z,40.95
2019-02-27T22:59:10.709Z,46.20
2019-02-27T23:01:43.556Z,42.45
2019-02-27T23:04:12.732Z,40.95
2019-02-27T23:06:47.286Z,38.78
2019-02-27T23:09:18.676Z,39.78
2019-02-27T23:11:49.312Z,39.83
2019-02-27T23:14:19.686Z,41.10
2019-02-27T23:16:49.241Z,42.35
2019-02-27T23:19:18.553Z,39.50
2019-02-27T23:21:47.549Z,40.83
2019-02-27T23:24:16.612Z,40.63
2019-02-27T23:26:45.681Z,38.80
2019-02-27T23:29:14.705Z,38.38
2019-02-27T23:31:43.728Z,37.17
2019-02-27T23:34:15.543Z,39.03
2019-02-27T23:36:44.410Z,41.50
2019-02-27T23:39:14.736Z,40.05
2019-02-27T23:41:43.637Z,36.83
2019-02-27T23:44:12.580Z,38.60
2019-02-27T23:46:48.739Z,38.10
2019-02-27T23:49:12.377Z,39.38
2019-02-27T23:51:43.908Z,37.78
2019-02-27T23:54:13.328Z,39.67
2019-02-27T23:56:42.330Z,41.00
2019-02-27T23:59:11.280Z,37.05
